createdAt,value
2023-05-08T07:22:03.243Z,1338.75
2023-05-08T07:25:08.826Z,1378.13
2023-05-08T07:26:09.408Z,1220.63
2023-05-08T07:27:09.394Z,1378.13
2023-05-08T07:28:08.687Z,1389.38
2023-05-08T07:29:08.730Z,1395.00
2023-05-08T07:30:09.588Z,1411.88
2023-05-08T07:31:12.475Z,1350.00
2023-05-08T07:32:08.627Z,1231.88
2023-05-08T07:33:18.807Z,1451.25
2023-05-08T07:35:45.971Z,1445.63
2023-05-08T07:36:46.031Z,1507.50
2023-05-08T07:37:45.986Z,1608.75
2023-05-08T07:38:45.913Z,1541.25
2023-05-08T07:39:46.605Z,1563.75
2023-05-08T07:40:46.657Z,1541.25
2023-05-08T07:41:47.760Z,1192.50
2023-05-08T07:42:47.608Z,1141.88
2023-05-08T07:43:45.748Z,1186.88
2023-05-08T07:44:54.285Z,1226.25
2023-05-08T07:45:45.655Z,978.75
2023-05-08T07:46:45.835Z,950.63
2023-05-08T07:47:45.642Z,911.25
2023-05-08T07:48:45.550Z,905.63
2023-05-08T07:49:47.252Z,860.63
2023-05-08T07:50:45.627Z,849.38
2023-05-08T07:51:46.196Z,843.75
2023-05-08T07:52:46.510Z,838.13
2023-05-08T07:53:45.511Z,871.88
2023-05-08T07:54:45.351Z,1018.13
2023-05-08T07:55:45.363Z,1029.38
2023-05-08T07:58:24.313Z,1333.13
2023-05-08T07:59:24.348Z,1260.00
2023-05-08T08:00:24.912Z,1265.63
2023-05-08T08:01:24.154Z,1186.88
2023-05-08T08:02:25.417Z,1243.13
2023-05-08T08:03:24.416Z,1186.88
2023-05-08T08:04:24.253Z,1102.50
2023-05-08T08:05:24.088Z,1046.25
2023-05-08T08:06:24.023Z,1147.50
2023-05-08T08:07:27.062Z,1130.63
2023-05-08T08:08:26.089Z,1125.00
2023-05-08T08:09:26.258Z,1209.38
2023-05-08T08:10:23.932Z,1181.25
2023-05-08T08:15:16.081Z,1445.63
2023-05-08T08:16:15.950Z,1383.75
2023-05-08T08:17:15.947Z,1361.25
2023-05-08T08:18:15.896Z,1344.38
2023-05-08T08:19:15.821Z,1316.25
2023-05-08T08:20:15.797Z,1293.75
2023-05-08T08:21:15.833Z,1299.38
2023-05-08T08:22:15.784Z,1321.88
2023-05-08T08:23:15.728Z,1501.88
2023-05-08T08:24:15.680Z,1321.88
2023-05-08T08:25:15.851Z,1293.75
2023-05-08T08:26:15.625Z,1636.88
2023-05-08T08:27:15.590Z,1389.38
2023-05-08T08:28:15.538Z,1282.50
2023-05-08T08:29:15.501Z,1305.00
2023-05-08T08:30:18.225Z,1361.25
2023-05-08T08:31:15.469Z,1378.13
2023-05-08T08:32:15.410Z,1321.88
2023-05-08T08:33:17.470Z,1327.50
2023-05-08T08:34:15.328Z,1344.38
2023-05-08T08:35:15.820Z,1383.75
2023-05-08T08:36:15.268Z,1350.00
2023-05-08T08:37:15.220Z,1338.75
2023-05-08T08:38:15.217Z,1288.13
2023-05-08T08:39:15.476Z,1215.00
2023-05-08T08:40:15.128Z,1175.63
2023-05-08T08:41:15.179Z,1125.00
2023-05-08T08:42:15.062Z,1080.00
2023-05-08T08:43:15.024Z,1040.63
2023-05-08T08:44:14.994Z,995.63
2023-05-08T08:45:15.164Z,961.88
2023-05-08T08:46:14.970Z,933.75
2023-05-08T08:47:14.915Z,911.25
2023-05-08T08:48:14.858Z,888.75
2023-05-08T08:49:14.816Z,877.50
2023-05-08T08:50:14.851Z,860.63
2023-05-08T08:51:14.755Z,849.38
2023-05-08T08:52:14.720Z,843.75
2023-05-08T08:53:14.699Z,826.88
2023-05-08T08:54:14.667Z,821.25
2023-05-08T08:55:14.737Z,821.25
2023-05-08T08:56:14.589Z,815.63
2023-05-08T08:57:14.711Z,826.88
2023-05-08T08:58:14.513Z,826.88
2023-05-08T08:59:14.566Z,838.13
2023-05-08T09:00:14.454Z,855.00
2023-05-08T09:01:14.421Z,866.25
2023-05-08T09:02:14.409Z,877.50
2023-05-08T09:03:14.413Z,871.88
2023-05-08T09:04:14.452Z,860.63
2023-05-08T09:05:14.481Z,843.75
2023-05-08T09:06:14.244Z,826.88
2023-05-08T09:07:14.197Z,815.63
2023-05-08T09:08:14.172Z,810.00
2023-05-08T09:09:14.141Z,821.25
2023-05-08T09:10:14.112Z,832.50
2023-05-08T09:11:14.086Z,855.00
2023-05-08T09:12:14.036Z,888.75
2023-05-08T09:13:14.092Z,922.50
2023-05-08T09:14:13.997Z,945.00
2023-05-08T09:15:14.217Z,967.50
2023-05-08T09:16:13.960Z,973.13
2023-05-08T09:17:13.844Z,973.13
2023-05-08T09:18:13.887Z,978.75
2023-05-08T09:19:13.787Z,973.13
2023-05-08T09:20:14.047Z,973.13
2023-05-08T09:21:13.723Z,973.13
2023-05-08T09:22:13.711Z,973.13
2023-05-08T09:23:13.650Z,967.50
2023-05-08T09:24:13.657Z,961.88
2023-05-08T09:25:13.787Z,956.25
2023-05-08T09:26:13.552Z,950.63
2023-05-08T09:27:13.513Z,950.63
2023-05-08T09:28:13.466Z,945.00
2023-05-08T09:29:13.512Z,945.00
2023-05-08T09:30:13.398Z,945.00
2023-05-08T09:31:13.399Z,945.00
2023-05-08T09:32:13.405Z,945.00
2023-05-08T09:33:13.420Z,933.75
2023-05-08T09:34:13.264Z,922.50
2023-05-08T09:35:13.698Z,905.63
2023-05-08T09:36:13.200Z,894.38
2023-05-08T09:37:13.173Z,860.63
2023-05-08T09:38:13.132Z,843.75
2023-05-08T09:39:13.094Z,826.88
2023-05-08T09:40:13.061Z,815.63
2023-05-08T09:41:13.021Z,810.00
2023-05-08T09:42:12.996Z,810.00
2023-05-08T09:43:12.973Z,815.63
2023-05-08T09:44:12.927Z,826.88
2023-05-08T09:45:13.197Z,832.50
2023-05-08T09:46:12.887Z,849.38
2023-05-08T09:47:12.864Z,843.75
2023-05-08T09:48:12.807Z,843.75
2023-05-08T09:49:12.797Z,843.75
2023-05-08T09:50:12.921Z,843.75
2023-05-08T09:51:12.688Z,843.75
2023-05-08T09:52:12.674Z,838.13
2023-05-08T09:53:12.621Z,843.75
2023-05-08T09:54:12.576Z,849.38
2023-05-08T09:55:12.583Z,855.00
2023-05-08T09:56:12.523Z,871.88
2023-05-08T09:57:12.471Z,888.75
2023-05-08T09:58:12.442Z,911.25
2023-05-08T09:59:12.449Z,933.75
2023-05-08T10:00:12.525Z,950.63
2023-05-08T10:01:12.465Z,961.88
2023-05-08T10:02:12.318Z,984.38
2023-05-08T10:03:12.413Z,995.63
2023-05-08T10:06:56.425Z,1035.00
2023-05-08T10:07:04.066Z,1051.88
2023-05-08T10:08:17.774Z,1080.00
2023-05-08T10:09:03.977Z,1113.75
2023-05-08T10:10:03.950Z,1147.50
2023-05-08T10:11:03.923Z,1175.63
2023-05-08T10:12:03.859Z,1215.00
2023-05-08T10:13:03.852Z,1254.38
2023-05-08T10:14:16.803Z,1293.75
2023-05-08T10:16:56.875Z,1406.25
2023-05-08T10:18:53.333Z,1417.50
2023-05-08T10:18:56.682Z,1428.75
2023-05-08T10:19:56.624Z,1434.38
2023-05-08T10:20:56.789Z,1440.00
2023-05-08T10:21:56.558Z,1451.25
2023-05-08T10:22:57.423Z,1473.75
2023-05-08T10:23:56.501Z,1485.00
2023-05-08T10:24:56.464Z,1507.50
2023-05-08T10:25:56.512Z,1558.13
2023-05-08T10:27:06.320Z,1620.00
2023-05-08T10:27:56.347Z,1681.88
2023-05-08T10:28:56.308Z,1738.13
2023-05-08T10:29:56.279Z,1873.13
2023-05-08T10:30:56.278Z,2261.25
2023-05-08T10:31:56.234Z,4545.00
2023-05-08T10:32:56.357Z,2581.88
2023-05-08T10:33:56.235Z,2581.88
2023-05-08T10:34:56.128Z,2694.38
2023-05-08T10:35:56.142Z,2874.38
2023-05-08T10:36:56.075Z,3251.25
2023-05-08T10:37:56.015Z,2289.38
2023-05-08T10:38:55.998Z,2030.63
2023-05-08T10:39:55.963Z,2278.13
2023-05-08T10:40:55.937Z,3307.50
2023-05-08T10:41:55.896Z,2019.38
2023-05-08T10:42:55.852Z,2508.75
2023-05-08T10:43:55.860Z,2289.38
2023-05-08T10:44:55.825Z,1811.25
2023-05-08T10:45:55.863Z,1822.50
2023-05-08T10:46:55.720Z,1783.13
2023-05-08T10:47:55.831Z,1800.00
2023-05-08T10:48:55.658Z,1620.00
2023-05-08T10:49:55.657Z,1586.25
2023-05-08T10:50:55.617Z,1715.63
2023-05-08T10:51:55.566Z,1693.13
2023-05-08T10:52:55.526Z,1575.00
2023-05-08T10:53:55.570Z,1569.38
2023-05-08T10:54:56.383Z,1586.25
2023-05-08T10:55:57.106Z,1575.00
2023-05-08T10:56:55.418Z,1575.00
2023-05-08T10:57:55.434Z,1575.00
2023-05-08T10:58:55.377Z,1710.00
2023-05-08T10:59:55.415Z,3881.25
2023-05-08T11:00:55.293Z,1833.75
2023-05-08T11:01:55.283Z,1687.50
2023-05-08T11:02:55.280Z,1687.50
2023-05-08T11:03:55.608Z,1698.75
2023-05-08T11:04:55.170Z,1856.25
2023-05-08T11:05:55.122Z,2964.38
2023-05-08T11:07:03.654Z,2165.63
2023-05-08T11:08:30.600Z,2250.00
2023-05-08T11:09:08.071Z,2109.38
2023-05-08T11:10:15.349Z,3369.38
2023-05-08T11:10:55.036Z,3594.38
2023-05-08T11:11:54.935Z,3943.13
2023-05-08T11:12:54.944Z,4050.00
2023-05-08T11:13:54.908Z,2148.75
2023-05-08T11:14:54.859Z,2559.38
2023-05-08T11:15:54.842Z,2418.75
2023-05-08T11:16:54.758Z,2115.00
2023-05-08T11:17:54.737Z,2244.38
2023-05-08T11:18:54.676Z,3555.00
2023-05-08T11:19:54.647Z,1974.38
2023-05-08T11:20:54.619Z,1558.13
2023-05-08T11:21:54.604Z,1507.50
2023-05-08T11:22:54.548Z,1530.00
2023-05-08T11:23:54.547Z,1653.75
2023-05-08T11:24:54.493Z,1974.38
2023-05-08T11:25:54.459Z,2486.25
2023-05-08T11:26:54.431Z,1755.00
2023-05-08T11:27:54.420Z,1732.50
2023-05-08T11:28:54.369Z,1856.25
2023-05-08T11:29:54.361Z,2902.50
2023-05-08T11:30:54.374Z,1890.00
2023-05-08T11:31:54.339Z,1575.00
2023-05-08T11:32:54.296Z,1597.50
2023-05-08T11:33:54.228Z,2649.38
2023-05-08T11:34:54.191Z,4865.63
2023-05-08T11:35:54.180Z,4803.75
2023-05-08T11:36:54.189Z,1710.00
2023-05-08T11:37:54.082Z,1777.50
2023-05-08T11:38:56.310Z,2210.63
2023-05-08T11:39:54.056Z,3729.38
2023-05-08T11:40:53.987Z,4263.75
2023-05-08T11:41:53.953Z,4584.38
2023-05-08T11:42:53.927Z,2913.75
2023-05-08T11:43:53.899Z,3178.13
2023-05-08T11:44:53.854Z,4021.88
2023-05-08T11:45:53.839Z,4573.13
2023-05-08T11:46:53.902Z,3031.88
2023-05-08T11:47:53.785Z,2323.13
2023-05-08T11:48:53.730Z,1895.63
2023-05-08T11:49:53.704Z,2070.00
2023-05-08T11:50:53.680Z,2874.38
2023-05-08T11:51:53.678Z,2345.63
2023-05-08T11:52:53.620Z,2250.00
2023-05-08T11:53:53.656Z,3099.38
2023-05-08T11:54:53.555Z,2896.88
2023-05-08T11:55:53.541Z,2868.75
2023-05-08T11:56:54.099Z,3127.50
2023-05-08T11:57:53.464Z,2722.50
2023-05-08T11:58:53.427Z,2227.50
2023-05-08T11:59:53.404Z,1901.25
2023-05-08T12:00:53.431Z,1816.88
2023-05-08T12:02:53.423Z,3015.00
2023-05-08T12:03:53.467Z,2525.63
2023-05-08T12:04:53.316Z,1963.13
2023-05-08T12:05:53.231Z,1918.13
2023-05-08T12:06:53.200Z,1693.13
2023-05-08T12:07:53.181Z,1642.50
2023-05-08T12:08:53.138Z,2092.50
2023-05-08T12:09:53.105Z,1665.00
2023-05-08T12:10:53.150Z,1603.13
2023-05-08T12:11:53.041Z,1788.75
2023-05-08T12:12:53.060Z,1670.63
2023-05-08T12:13:53.035Z,1620.00
2023-05-08T12:14:52.970Z,1575.00
2023-05-08T12:15:52.927Z,1586.25
2023-05-08T12:16:52.974Z,1614.38
2023-05-08T12:18:56.149Z,1569.38
2023-05-08T12:19:52.941Z,1541.25
2023-05-08T12:20:52.753Z,1485.00
2023-05-08T12:21:52.772Z,1485.00
2023-05-08T12:22:52.781Z,1513.13
2023-05-08T12:23:52.698Z,1513.13
2023-05-08T12:24:52.656Z,1535.63
2023-05-08T12:25:54.401Z,2486.25
2023-05-08T12:26:52.589Z,1946.25
2023-05-08T12:27:52.553Z,1800.00
2023-05-08T12:28:52.517Z,2053.13
2023-05-08T12:29:52.470Z,1929.38
2023-05-08T12:30:52.481Z,2115.00
2023-05-08T12:31:52.411Z,1462.50
2023-05-08T12:32:52.421Z,1395.00
2023-05-08T12:33:52.362Z,1395.00
2023-05-08T12:34:52.311Z,1338.75
2023-05-08T12:35:52.280Z,1271.25
2023-05-08T12:36:52.254Z,1254.38
2023-05-08T12:37:52.236Z,1215.00
2023-05-08T12:38:52.208Z,1215.00
2023-05-08T12:39:52.166Z,1164.38
2023-05-08T12:40:52.192Z,1096.88
2023-05-08T12:41:52.123Z,1051.88
2023-05-08T12:42:52.052Z,1012.50
2023-05-08T12:43:52.059Z,984.38
2023-05-08T12:44:52.011Z,978.75
2023-05-08T12:45:51.965Z,967.50
2023-05-08T12:46:51.998Z,967.50
2023-05-08T12:47:51.941Z,973.13
2023-05-08T12:48:51.872Z,973.13
2023-05-08T12:49:51.828Z,973.13
2023-05-08T12:50:51.848Z,973.13
2023-05-08T12:51:51.759Z,961.88
2023-05-08T12:52:52.131Z,945.00
2023-05-08T12:53:51.697Z,939.38
2023-05-08T12:54:51.663Z,939.38
2023-05-08T12:55:51.642Z,933.75
2023-05-08T12:56:51.686Z,933.75
2023-05-08T12:57:51.573Z,933.75
2023-05-08T12:58:51.602Z,933.75
2023-05-08T12:59:51.536Z,928.13
2023-05-08T13:00:51.514Z,922.50
2023-05-08T13:01:51.487Z,916.88
2023-05-08T13:02:51.602Z,911.25
2023-05-08T13:04:01.471Z,905.63
2023-05-08T13:04:51.444Z,894.38
2023-05-08T13:05:51.307Z,894.38
2023-05-08T13:06:51.339Z,866.25
2023-05-08T13:07:51.297Z,860.63
2023-05-08T13:08:51.214Z,838.13
2023-05-08T13:09:51.185Z,832.50
2023-05-08T13:10:51.123Z,826.88
2023-05-08T13:11:51.169Z,821.25
2023-05-08T13:12:52.754Z,821.25
2023-05-08T13:13:51.033Z,821.25
2023-05-08T13:14:51.009Z,843.75
2023-05-08T13:18:19.834Z,860.63
2023-05-08T13:19:28.230Z,871.88
2023-05-08T13:20:19.745Z,877.50
2023-05-08T13:21:29.257Z,894.38
2023-05-08T13:22:28.881Z,905.63
2023-05-08T13:23:19.634Z,922.50
2023-05-08T13:24:19.613Z,928.13
2023-05-08T13:26:05.396Z,945.00
2023-05-08T13:26:19.540Z,939.38
2023-05-08T13:27:19.523Z,939.38
2023-05-08T13:28:19.544Z,945.00
2023-05-08T13:29:19.429Z,945.00
2023-05-08T13:30:19.403Z,945.00
2023-05-08T13:31:19.410Z,950.63
2023-05-08T13:32:19.346Z,956.25
2023-05-08T13:33:19.840Z,967.50
2023-05-08T13:34:19.262Z,973.13
2023-05-08T13:35:19.234Z,984.38
2023-05-08T13:36:19.211Z,990.00
2023-05-08T13:37:19.178Z,990.00
2023-05-08T13:38:19.151Z,984.38
2023-05-08T13:39:19.082Z,967.50
2023-05-08T13:40:19.054Z,950.63
2023-05-08T13:41:19.022Z,922.50
2023-05-08T13:42:19.004Z,900.00
2023-05-08T13:43:18.938Z,871.88
2023-05-08T13:44:18.982Z,866.25
2023-05-08T13:45:18.879Z,849.38
2023-05-08T13:46:18.916Z,843.75
2023-05-08T13:47:18.905Z,832.50
2023-05-08T13:48:18.801Z,826.88
2023-05-08T13:49:18.732Z,832.50
2023-05-08T13:50:18.698Z,843.75
2023-05-08T13:51:18.683Z,855.00
2023-05-08T13:52:18.647Z,871.88
2023-05-08T13:53:18.604Z,894.38
2023-05-08T13:54:18.556Z,911.25
2023-05-08T13:55:18.549Z,922.50
2023-05-08T13:56:25.734Z,922.50
2023-05-08T13:57:18.469Z,911.25
2023-05-08T13:58:18.421Z,888.75
2023-05-08T13:59:18.374Z,860.63
2023-05-08T14:00:18.482Z,832.50
2023-05-08T14:01:26.598Z,810.00
2023-05-08T14:02:18.419Z,798.75
2023-05-08T14:03:18.304Z,793.13
2023-05-08T14:04:18.249Z,798.75
2023-05-08T14:05:18.186Z,804.38
2023-05-08T14:06:18.145Z,810.00
2023-05-08T14:07:18.111Z,810.00
2023-05-08T14:08:18.076Z,810.00
2023-05-08T14:09:18.032Z,798.75
2023-05-08T14:10:18.053Z,793.13
2023-05-08T14:11:17.967Z,776.25
2023-05-08T14:12:17.928Z,753.75
2023-05-08T14:13:17.959Z,748.13
2023-05-08T14:14:17.865Z,742.50
2023-05-08T14:15:17.826Z,748.13
2023-05-08T14:16:18.035Z,742.50
2023-05-08T14:17:17.757Z,748.13
2023-05-08T14:18:17.730Z,759.38
2023-05-08T14:19:17.686Z,759.38
2023-05-08T14:20:17.669Z,765.00
2023-05-08T14:21:17.641Z,770.63
2023-05-08T14:22:21.871Z,776.25
2023-05-08T14:23:17.552Z,776.25
2023-05-08T14:24:17.524Z,781.88
2023-05-08T14:25:17.476Z,793.13
2023-05-08T14:26:17.478Z,810.00
2023-05-08T14:27:17.415Z,821.25
2023-05-08T14:28:17.419Z,832.50
2023-05-08T14:29:17.344Z,843.75
2023-05-08T14:30:17.310Z,849.38
2023-05-08T14:31:17.294Z,871.88
2023-05-08T14:32:17.377Z,905.63
2023-05-08T14:33:19.230Z,939.38
2023-05-08T14:34:17.202Z,961.88
2023-05-08T14:35:17.126Z,990.00
2023-05-08T14:36:17.114Z,995.63
2023-05-08T14:37:17.068Z,1006.88
2023-05-08T14:38:17.032Z,1012.50
2023-05-08T14:39:16.993Z,1023.75
2023-05-08T14:40:16.967Z,1029.38
2023-05-08T14:41:16.938Z,1029.38
2023-05-08T14:42:22.291Z,1040.63
2023-05-08T14:43:16.858Z,1040.63
2023-05-08T14:44:16.830Z,1029.38
2023-05-08T14:45:17.088Z,1018.13
2023-05-08T14:46:16.809Z,1001.25
2023-05-08T14:47:16.741Z,984.38
2023-05-08T14:48:16.802Z,984.38
2023-05-08T14:49:25.272Z,973.13
2023-05-08T14:50:16.620Z,973.13
2023-05-08T14:51:16.587Z,984.38
2023-05-08T14:52:16.561Z,967.50
2023-05-08T14:53:16.638Z,956.25
2023-05-08T14:54:16.620Z,939.38
2023-05-08T14:55:16.799Z,950.63
2023-05-08T14:56:17.958Z,933.75
2023-05-08T14:57:16.393Z,916.88
2023-05-08T14:58:16.351Z,894.38
2023-05-08T14:59:16.311Z,871.88
2023-05-08T15:00:16.515Z,838.13
2023-05-08T15:01:16.279Z,810.00
2023-05-08T15:02:16.339Z,793.13
2023-05-08T15:03:16.323Z,759.38
2023-05-08T15:04:16.246Z,725.63
2023-05-08T15:06:16.067Z,675.00
2023-05-08T15:07:16.037Z,641.25
2023-05-08T15:08:15.997Z,624.38
2023-05-08T15:09:15.965Z,613.13
2023-05-08T15:10:15.959Z,601.88
2023-05-08T15:11:15.892Z,596.25
2023-05-08T15:12:15.857Z,590.63
2023-05-08T15:13:15.881Z,590.63
2023-05-08T15:14:15.795Z,585.00
2023-05-08T15:15:16.016Z,573.75
2023-05-08T15:16:15.746Z,562.50
2023-05-08T15:17:15.691Z,551.25
2023-05-08T15:18:15.656Z,540.00
2023-05-08T15:19:15.998Z,517.50
2023-05-08T15:20:15.688Z,506.25
2023-05-08T15:21:15.549Z,500.63
2023-05-08T15:22:15.558Z,495.00
2023-05-08T15:23:15.480Z,495.00
2023-05-08T15:24:15.470Z,495.00
2023-05-08T15:25:15.647Z,495.00
2023-05-08T15:26:15.372Z,500.63
2023-05-08T15:27:16.889Z,500.63
2023-05-08T15:28:15.314Z,500.63
2023-05-08T15:29:15.275Z,495.00
2023-05-08T15:30:15.254Z,489.38
2023-05-08T15:31:15.221Z,489.38
2023-05-08T15:32:15.287Z,489.38
2023-05-08T15:33:15.153Z,495.00
2023-05-08T15:34:15.087Z,500.63
2023-05-08T15:35:15.278Z,511.88
2023-05-08T15:36:15.129Z,523.13
2023-05-08T15:37:14.983Z,528.75
2023-05-08T15:38:14.963Z,534.38
2023-05-08T15:39:14.914Z,534.38
2023-05-08T15:40:14.886Z,534.38
2023-05-08T15:41:15.684Z,528.75
2023-05-08T15:42:14.814Z,523.13
2023-05-08T15:43:14.773Z,523.13
2023-05-08T15:44:14.762Z,511.88
2023-05-08T15:45:14.990Z,506.25
2023-05-08T15:46:14.710Z,495.00
2023-05-08T15:47:14.644Z,489.38
2023-05-08T15:48:14.598Z,478.13
2023-05-08T15:49:14.561Z,472.50
2023-05-08T15:50:14.568Z,466.88
2023-05-08T15:51:14.516Z,461.25
2023-05-08T15:52:14.537Z,450.00
2023-05-08T15:53:14.422Z,438.75
2023-05-08T15:54:14.390Z,427.50
2023-05-08T15:55:14.683Z,416.25
2023-05-08T15:56:14.343Z,405.00
2023-05-08T15:57:14.298Z,393.75
2023-05-08T15:58:14.270Z,382.50
2023-05-08T15:59:14.215Z,371.25
2023-05-08T16:00:14.982Z,360.00
2023-05-08T16:01:14.152Z,354.38
2023-05-08T16:02:14.150Z,343.13
2023-05-08T16:03:14.187Z,331.88
2023-05-08T16:04:14.032Z,326.25
2023-05-08T16:05:14.228Z,320.63
2023-05-08T16:06:13.985Z,309.38
2023-05-08T16:07:13.926Z,309.38
2023-05-08T16:08:14.004Z,303.75
2023-05-08T16:09:15.464Z,298.13
2023-05-08T16:10:13.882Z,298.13
2023-05-08T16:11:13.778Z,292.50
2023-05-08T16:12:13.787Z,292.50
2023-05-08T16:13:13.792Z,286.88
2023-05-08T16:14:13.688Z,286.88
2023-05-08T16:15:13.833Z,286.88
2023-05-08T16:16:13.647Z,281.25
2023-05-08T16:17:13.562Z,281.25
2023-05-08T16:18:13.542Z,281.25
2023-05-08T16:19:13.499Z,275.63
2023-05-08T16:20:13.488Z,275.63
2023-05-08T16:21:13.439Z,275.63
2023-05-08T16:22:13.411Z,281.25
2023-05-08T16:23:13.357Z,281.25
2023-05-08T16:24:13.400Z,281.25
2023-05-08T16:25:13.563Z,275.63
2023-05-08T16:26:13.263Z,275.63
2023-05-08T16:27:13.213Z,270.00
2023-05-08T16:28:13.182Z,270.00
2023-05-08T16:29:13.144Z,270.00
2023-05-08T16:30:13.109Z,270.00
2023-05-08T16:31:13.132Z,270.00
2023-05-08T16:32:13.981Z,270.00
2023-05-08T16:33:13.029Z,275.63
2023-05-08T16:34:13.269Z,275.63
2023-05-08T16:35:13.197Z,275.63
2023-05-08T16:36:12.894Z,275.63
2023-05-08T16:37:12.866Z,270.00
2023-05-08T16:38:12.930Z,270.00
2023-05-08T16:39:12.808Z,270.00
2023-05-08T16:40:12.842Z,270.00
2023-05-08T16:41:12.716Z,264.38
2023-05-08T16:42:12.684Z,264.38
2023-05-08T16:43:12.641Z,258.75
2023-05-08T16:44:12.619Z,253.13
2023-05-08T16:45:12.710Z,247.50
2023-05-08T16:46:12.560Z,247.50
2023-05-08T16:47:12.625Z,241.88
2023-05-08T16:48:21.653Z,236.25
2023-05-08T16:49:20.636Z,230.63
2023-05-08T16:50:21.130Z,225.00
2023-05-08T16:51:21.215Z,225.00
2023-05-08T16:52:25.562Z,219.38
2023-05-08T16:53:19.795Z,213.75
2023-05-08T16:54:20.743Z,208.13
2023-05-08T16:55:21.200Z,202.50
2023-05-08T16:56:20.271Z,202.50
2023-05-08T16:57:19.867Z,196.88
2023-05-08T16:58:12.098Z,196.88
2023-05-08T16:59:12.064Z,196.88
2023-05-08T17:00:12.008Z,196.88
2023-05-08T17:01:12.023Z,196.88
2023-05-08T17:02:11.987Z,202.50
2023-05-08T17:03:12.442Z,202.50
2023-05-08T17:04:11.863Z,202.50
2023-05-08T17:05:11.916Z,208.13
2023-05-08T17:06:12.730Z,208.13
2023-05-08T17:07:11.761Z,213.75
2023-05-08T17:08:11.738Z,213.75
2023-05-08T17:09:11.718Z,219.38
2023-05-08T17:10:11.647Z,225.00
2023-05-08T17:11:11.696Z,225.00
2023-05-08T17:12:11.565Z,230.63
2023-05-08T17:13:12.260Z,230.63
2023-05-08T17:14:11.512Z,230.63
2023-05-08T17:15:11.571Z,230.63
2023-05-08T17:16:11.485Z,236.25
2023-05-08T17:17:11.404Z,230.63
2023-05-08T17:18:11.399Z,230.63
2023-05-08T17:19:11.327Z,230.63
2023-05-08T17:20:11.487Z,230.63
2023-05-08T17:21:11.273Z,225.00
2023-05-08T17:22:11.206Z,225.00
2023-05-08T17:23:11.176Z,219.38
2023-05-08T17:24:11.136Z,219.38
2023-05-08T17:25:11.116Z,219.38
2023-05-08T17:26:11.062Z,213.75
2023-05-08T17:27:11.134Z,213.75
2023-05-08T17:28:11.004Z,213.75
2023-05-08T17:29:10.969Z,213.75
2023-05-08T17:30:10.931Z,213.75
2023-05-08T17:31:10.901Z,208.13
2023-05-08T17:32:10.902Z,208.13
2023-05-08T17:33:10.907Z,202.50
2023-05-08T17:34:10.800Z,202.50
2023-05-08T17:35:10.751Z,202.50
2023-05-08T17:36:10.707Z,202.50
2023-05-08T17:37:10.673Z,196.88
2023-05-08T17:38:10.645Z,196.88
2023-05-08T17:39:11.249Z,191.25
2023-05-08T17:40:10.577Z,191.25
2023-05-08T17:41:10.542Z,185.63
2023-05-08T17:42:10.493Z,185.63
2023-05-08T17:43:10.619Z,180.00
2023-05-08T17:44:10.444Z,180.00
2023-05-08T17:45:10.401Z,180.00
2023-05-08T17:46:10.431Z,180.00
2023-05-08T17:47:10.308Z,174.38
2023-05-08T17:48:10.327Z,174.38
2023-05-08T17:49:10.285Z,174.38
2023-05-08T17:50:10.287Z,168.75
2023-05-08T17:51:10.191Z,168.75
2023-05-08T17:52:10.168Z,163.13
2023-05-08T17:53:10.094Z,163.13
2023-05-08T17:54:10.053Z,157.50
2023-05-08T17:55:10.768Z,151.88
2023-05-08T17:56:09.988Z,151.88
2023-05-08T17:57:09.968Z,146.25
2023-05-08T17:58:10.019Z,146.25
2023-05-08T17:59:09.972Z,140.63
2023-05-08T18:00:09.840Z,135.00
2023-05-08T18:01:09.859Z,129.38
2023-05-08T18:02:09.795Z,129.38
2023-05-08T18:03:09.877Z,123.75
2023-05-08T18:04:10.324Z,118.13
2023-05-08T18:05:09.679Z,112.50
2023-05-08T18:06:09.620Z,112.50
2023-05-08T18:07:09.627Z,106.88
2023-05-08T18:08:09.578Z,106.88
2023-05-08T18:09:09.517Z,106.88
2023-05-08T18:10:09.491Z,101.25
2023-05-08T18:11:09.441Z,101.25
2023-05-08T18:12:09.427Z,101.25
2023-05-08T18:13:09.421Z,95.63
2023-05-08T18:14:09.351Z,90.00
2023-05-08T18:15:09.404Z,90.00
2023-05-08T18:16:09.299Z,84.38
2023-05-08T18:17:09.229Z,84.38
2023-05-08T18:18:09.204Z,84.38
2023-05-08T18:19:09.156Z,78.75
2023-05-08T18:20:09.160Z,78.75
2023-05-08T18:21:09.077Z,78.75
2023-05-08T18:22:09.047Z,73.13
2023-05-08T18:23:09.015Z,73.13
2023-05-08T18:24:08.970Z,73.13
2023-05-08T18:25:08.943Z,67.50
2023-05-08T18:26:08.917Z,67.50
2023-05-08T18:27:08.890Z,61.88
2023-05-08T18:28:08.821Z,61.88
2023-05-08T18:29:08.796Z,61.88
2023-05-08T18:30:08.772Z,61.88
2023-05-08T18:31:08.824Z,56.25
2023-05-08T18:32:08.681Z,56.25
2023-05-08T18:33:08.671Z,50.63
2023-05-08T18:34:08.601Z,50.63
2023-05-08T18:35:08.595Z,50.63
2023-05-08T18:36:08.563Z,45.00
2023-05-08T18:37:08.514Z,45.00
2023-05-08T18:38:08.585Z,39.38
2023-05-08T18:39:08.441Z,39.38
2023-05-08T18:40:08.390Z,39.38
2023-05-08T18:41:08.356Z,33.75
2023-05-08T18:42:08.350Z,33.75
2023-05-08T18:43:08.284Z,33.75
2023-05-08T18:44:08.252Z,28.13
2023-05-08T18:45:08.217Z,28.13
2023-05-08T18:46:08.200Z,28.13
2023-05-08T18:47:08.234Z,22.50
2023-05-08T18:48:08.178Z,22.50
2023-05-08T18:49:08.060Z,22.50
2023-05-08T18:50:08.107Z,16.88
2023-05-08T18:51:07.989Z,16.88
2023-05-08T18:52:08.775Z,16.88
2023-05-08T18:53:07.933Z,16.88
2023-05-08T18:54:07.878Z,16.88
2023-05-08T18:55:07.850Z,11.25
2023-05-08T18:56:08.425Z,11.25
2023-05-08T18:57:07.798Z,11.25
2023-05-08T18:58:07.727Z,11.25
2023-05-08T18:59:07.698Z,11.25
2023-05-08T19:00:07.686Z,5.63
2023-05-08T19:01:07.672Z,5.63
2023-05-08T19:02:07.585Z,5.63
2023-05-08T19:03:07.769Z,5.63
2023-05-08T19:04:07.586Z,5.63
2023-05-08T19:05:07.543Z,5.63
2023-05-08T19:06:07.439Z,5.63
2023-05-08T19:07:07.473Z,5.63
2023-05-08T19:08:07.363Z,5.63
2023-05-08T19:09:07.413Z,5.63
2023-05-08T19:10:07.292Z,0.00
2023-05-08T19:11:07.252Z,0.00
2023-05-08T19:12:07.244Z,0.00
2023-05-08T19:13:07.230Z,0.00
2023-05-08T19:14:07.148Z,0.00
2023-05-08T19:15:07.133Z,0.00
2023-05-08T19:16:07.154Z,0.00
2023-05-08T19:17:07.035Z,0.00
2023-05-08T19:18:07.002Z,0.00
2023-05-08T19:19:07.059Z,0.00
2023-05-08T19:20:06.914Z,0.00
2023-05-08T19:21:06.918Z,0.00
2023-05-08T19:22:06.863Z,0.00
2023-05-08T19:23:06.808Z,0.00
2023-05-08T19:24:06.778Z,0.00
2023-05-08T19:25:06.744Z,0.00
2023-05-08T19:26:06.704Z,0.00
2023-05-08T19:27:06.687Z,0.00
2023-05-08T19:28:06.630Z,0.00
2023-05-08T19:29:06.604Z,0.00
2023-05-08T19:30:06.559Z,0.00
2023-05-08T19:31:06.519Z,0.00
2023-05-08T19:32:06.518Z,0.00
2023-05-08T19:33:06.484Z,0.00
2023-05-08T19:34:06.439Z,0.00
2023-05-08T19:35:06.459Z,0.00
2023-05-08T19:36:06.345Z,0.00
2023-05-08T19:37:06.295Z,0.00
2023-05-08T19:38:06.252Z,0.00
2023-05-08T19:39:06.234Z,0.00
2023-05-08T19:40:06.177Z,0.00
2023-05-08T19:41:06.146Z,0.00
2023-05-08T19:42:06.098Z,0.00
2023-05-08T19:43:06.111Z,0.00
2023-05-08T19:44:06.027Z,0.00
2023-05-08T19:45:06.183Z,0.00
2023-05-08T19:46:05.963Z,0.00
2023-05-08T19:47:05.933Z,0.00
2023-05-08T19:48:10.536Z,0.00
2023-05-08T19:49:05.864Z,0.00
2023-05-08T19:50:05.811Z,0.00
2023-05-08T19:51:05.878Z,0.00
2023-05-08T19:52:05.740Z,0.00
2023-05-08T19:53:05.700Z,0.00
2023-05-08T19:54:05.672Z,0.00
2023-05-08T19:55:05.619Z,0.00
2023-05-08T19:56:06.300Z,0.00
2023-05-08T20:00:06.202Z,0.00
2023-05-08T20:00:50.838Z,0.00
2023-05-08T20:01:46.263Z,0.00
2023-05-08T20:02:46.479Z,0.00
2023-05-08T20:03:46.209Z,0.00
2023-05-08T20:05:14.606Z,0.00
2023-05-08T20:05:46.084Z,0.00
2023-05-08T20:06:46.025Z,0.00
2023-05-08T20:07:45.970Z,0.00
2023-05-08T20:08:45.954Z,0.00
2023-05-08T20:09:45.908Z,0.00